sensor_id;sensor_type;location;lat;lon;timestamp;P1;durP1;ratioP1;P2;durP2;ratioP2
1404;SDS011;697;51.114;6.542;2024-03-23T00:54:09;7.40;;;4.23;;
1404;SDS011;697;51.114;6.542;2024-03-23T00:56:35;10.40;;;4.97;;
1404;SDS011;697;51.114;6.542;2024-03-23T00:59:01;7.40;;;4.20;;
1404;SDS011;697;51.114;6.542;2024-03-23T01:01:27;11.13;;;3.77;;
1404;SDS011;697;51.114;6.542;2024-03-23T01:03:54;7.17;;;4.07;;
1404;SDS011;697;51.114;6.542;2024-03-23T01:06:20;8.30;;;4.10;;
1404;SDS011;697;51.114;6.542;2024-03-23T01:08:47;8.53;;;3.00;;
1404;SDS011;697;51.114;6.542;2024-03-23T01:11:14;8.13;;;3.43;;
1404;SDS011;697;51.114;6.542;2024-03-23T01:13:41;6.80;;;2.83;;
1404;SDS011;697;51.114;6.542;2024-03-23T01:16:07;9.13;;;3.10;;
1404;SDS011;697;51.114;6.542;2024-03-23T01:18:34;3.97;;;2.50;;
1404;SDS011;697;51.114;6.542;2024-03-23T01:20:59;6.17;;;2.30;;
1404;SDS011;697;51.114;6.542;2024-03-23T01:23:26;6.40;;;2.53;;
1404;SDS011;697;51.114;6.542;2024-03-23T01:25:52;7.20;;;2.80;;
1404;SDS011;697;51.114;6.542;2024-03-23T01:28:20;4.77;;;2.10;;
1404;SDS011;697;51.114;6.542;2024-03-23T01:30:47;7.20;;;2.70;;
1404;SDS011;697;51.114;6.542;2024-03-23T01:33:14;6.77;;;1.83;;
1404;SDS011;697;51.114;6.542;2024-03-23T01:35:40;6.70;;;1.93;;
1404;SDS011;697;51.114;6.542;2024-03-23T01:38:07;3.00;;;1.90;;
1404;SDS011;697;51.114;6.542;2024-03-23T01:40:33;7.93;;;3.20;;
1404;SDS011;697;51.114;6.542;2024-03-23T01:43:02;5.07;;;2.90;;
1404;SDS011;697;51.114;6.542;2024-03-23T01:45:31;9.10;;;2.90;;
1404;SDS011;697;51.114;6.542;2024-03-23T01:47:58;6.13;;;2.30;;
1404;SDS011;697;51.114;6.542;2024-03-23T01:50:24;5.60;;;2.00;;
1404;SDS011;697;51.114;6.542;2024-03-23T01:52:51;7.53;;;1.90;;
1404;SDS011;697;51.114;6.542;2024-03-23T01:55:18;7.07;;;2.03;;
1404;SDS011;697;51.114;6.542;2024-03-23T01:57:45;7.20;;;2.20;;
1404;SDS011;697;51.114;6.542;2024-03-23T02:00:11;9.30;;;2.73;;
1404;SDS011;697;51.114;6.542;2024-03-23T02:02:42;3.40;;;1.33;;
1404;SDS011;697;51.114;6.542;2024-03-23T02:05:09;3.07;;;1.20;;
1404;SDS011;697;51.114;6.542;2024-03-23T02:07:36;4.03;;;1.50;;
1404;SDS011;697;51.114;6.542;2024-03-23T02:10:03;4.07;;;1.80;;
1404;SDS011;697;51.114;6.542;2024-03-23T02:12:31;5.50;;;1.83;;
1404;SDS011;697;51.114;6.542;2024-03-23T02:14:57;7.20;;;1.93;;
1404;SDS011;697;51.114;6.542;2024-03-23T02:17:24;5.53;;;1.87;;
1404;SDS011;697;51.114;6.542;2024-03-23T02:19:51;7.80;;;1.80;;
1404;SDS011;697;51.114;6.542;2024-03-23T02:22:18;4.90;;;1.63;;
1404;SDS011;697;51.114;6.542;2024-03-23T02:24:45;6.17;;;1.77;;
1404;SDS011;697;51.114;6.542;2024-03-23T02:27:12;9.33;;;2.10;;
1404;SDS011;697;51.114;6.542;2024-03-23T02:29:38;4.17;;;1.40;;
1404;SDS011;697;51.114;6.542;2024-03-23T02:32:05;4.10;;;1.70;;
1404;SDS011;697;51.114;6.542;2024-03-23T02:34:34;6.20;;;1.83;;
1404;SDS011;697;51.114;6.542;2024-03-23T02:37:00;10.53;;;2.97;;
1404;SDS011;697;51.114;6.542;2024-03-23T02:39:27;2.70;;;1.30;;
1404;SDS011;697;51.114;6.542;2024-03-23T02:41:55;5.30;;;1.60;;
1404;SDS011;697;51.114;6.542;2024-03-23T02:44:21;3.93;;;1.87;;
1404;SDS011;697;51.114;6.542;2024-03-23T02:46:48;5.63;;;1.50;;
1404;SDS011;697;51.114;6.542;2024-03-23T02:49:14;5.60;;;2.03;;
1404;SDS011;697;51.114;6.542;2024-03-23T02:51:40;6.27;;;2.50;;
1404;SDS011;697;51.114;6.542;2024-03-23T02:54:06;6.73;;;2.07;;
1404;SDS011;697;51.114;6.542;2024-03-23T02:56:33;3.03;;;1.67;;
1404;SDS011;697;51.114;6.542;2024-03-23T02:59:01;5.53;;;2.57;;
1404;SDS011;697;51.114;6.542;2024-03-23T03:01:27;4.80;;;1.90;;
1404;SDS011;697;51.114;6.542;2024-03-23T03:03:53;6.07;;;1.87;;
1404;SDS011;697;51.114;6.542;2024-03-23T03:06:23;9.00;;;1.80;;
1404;SDS011;697;51.114;6.542;2024-03-23T03:08:49;8.00;;;1.90;;
1404;SDS011;697;51.114;6.542;2024-03-23T03:11:16;4.43;;;1.63;;
1404;SDS011;697;51.114;6.542;2024-03-23T03:13:42;5.37;;;2.50;;
1404;SDS011;697;51.114;6.542;2024-03-23T03:16:10;3.43;;;1.53;;
1404;SDS011;697;51.114;6.542;2024-03-23T03:18:36;9.00;;;1.77;;
1404;SDS011;697;51.114;6.542;2024-03-23T03:21:03;5.80;;;1.80;;
1404;SDS011;697;51.114;6.542;2024-03-23T03:23:30;10.00;;;1.73;;
1404;SDS011;697;51.114;6.542;2024-03-23T03:25:57;9.50;;;1.90;;
1404;SDS011;697;51.114;6.542;2024-03-23T03:28:23;6.50;;;2.10;;
1404;SDS011;697;51.114;6.542;2024-03-23T03:30:51;9.50;;;2.60;;
1404;SDS011;697;51.114;6.542;2024-03-23T03:33:18;5.80;;;2.07;;
1404;SDS011;697;51.114;6.542;2024-03-23T03:35:45;12.47;;;1.93;;
1404;SDS011;697;51.114;6.542;2024-03-23T03:38:11;5.67;;;1.97;;
1404;SDS011;697;51.114;6.542;2024-03-23T03:40:38;8.67;;;3.67;;
1404;SDS011;697;51.114;6.542;2024-03-23T03:43:03;8.87;;;2.13;;
1404;SDS011;697;51.114;6.542;2024-03-23T03:45:30;7.57;;;2.00;;
1404;SDS011;697;51.114;6.542;2024-03-23T03:47:56;4.40;;;1.90;;
1404;SDS011;697;51.114;6.542;2024-03-23T03:50:25;6.90;;;2.37;;
1404;SDS011;697;51.114;6.542;2024-03-23T03:52:51;4.60;;;2.30;;
1404;SDS011;697;51.114;6.542;2024-03-23T03:55:18;3.60;;;1.80;;
1404;SDS011;697;51.114;6.542;2024-03-23T03:57:44;6.33;;;2.57;;
1404;SDS011;697;51.114;6.542;2024-03-23T04:00:11;7.37;;;2.40;;
1404;SDS011;697;51.114;6.542;2024-03-23T04:02:37;10.33;;;2.60;;
1404;SDS011;697;51.114;6.542;2024-03-23T04:05:04;7.70;;;2.50;;
1404;SDS011;697;51.114;6.542;2024-03-23T04:07:32;18.37;;;3.80;;
1404;SDS011;697;51.114;6.542;2024-03-23T04:09:59;8.53;;;2.30;;
1404;SDS011;697;51.114;6.542;2024-03-23T04:12:25;11.27;;;2.73;;
1404;SDS011;697;51.114;6.542;2024-03-23T04:14:52;8.37;;;1.93;;
1404;SDS011;697;51.114;6.542;2024-03-23T04:17:17;13.43;;;2.50;;
1404;SDS011;697;51.114;6.542;2024-03-23T04:19:45;7.07;;;2.37;;
1404;SDS011;697;51.114;6.542;2024-03-23T04:22:10;5.40;;;2.40;;
1404;SDS011;697;51.114;6.542;2024-03-23T04:24:39;8.60;;;2.30;;
1404;SDS011;697;51.114;6.542;2024-03-23T04:27:05;7.83;;;2.60;;
1404;SDS011;697;51.114;6.542;2024-03-23T04:29:31;8.40;;;2.70;;
1404;SDS011;697;51.114;6.542;2024-03-23T04:31:57;15.23;;;2.70;;
1404;SDS011;697;51.114;6.542;2024-03-23T04:34:24;6.60;;;2.60;;
1404;SDS011;697;51.114;6.542;2024-03-23T04:36:50;8.07;;;3.40;;
1404;SDS011;697;51.114;6.542;2024-03-23T04:39:17;9.53;;;2.70;;
1404;SDS011;697;51.114;6.542;2024-03-23T04:41:46;10.37;;;3.67;;
1404;SDS011;697;51.114;6.542;2024-03-23T04:44:12;9.47;;;3.27;;
1404;SDS011;697;51.114;6.542;2024-03-23T04:46:39;7.67;;;3.00;;
1404;SDS011;697;51.114;6.542;2024-03-23T04:49:06;10.43;;;3.60;;
1404;SDS011;697;51.114;6.542;2024-03-23T04:51:35;13.80;;;4.17;;
1404;SDS011;697;51.114;6.542;2024-03-23T04:54:01;13.67;;;3.80;;
1404;SDS011;697;51.114;6.542;2024-03-23T04:56:29;5.40;;;3.23;;
1404;SDS011;697;51.114;6.542;2024-03-23T04:58:58;7.17;;;2.90;;
1404;SDS011;697;51.114;6.542;2024-03-23T05:01:26;9.93;;;3.83;;
1404;SDS011;697;51.114;6.542;2024-03-23T05:03:54;12.13;;;4.23;;
1404;SDS011;697;51.114;6.542;2024-03-23T05:06:20;8.23;;;3.50;;
1404;SDS011;697;51.114;6.542;2024-03-23T05:08:47;8.40;;;4.47;;
1404;SDS011;697;51.114;6.542;2024-03-23T05:11:13;11.30;;;3.40;;
1404;SDS011;697;51.114;6.542;2024-03-23T05:13:40;7.00;;;2.90;;
1404;SDS011;697;51.114;6.542;2024-03-23T05:16:08;8.70;;;3.50;;
1404;SDS011;697;51.114;6.542;2024-03-23T05:18:34;8.23;;;3.60;;
1404;SDS011;697;51.114;6.542;2024-03-23T05:21:01;11.20;;;3.30;;
1404;SDS011;697;51.114;6.542;2024-03-23T05:23:28;7.70;;;2.77;;
1404;SDS011;697;51.114;6.542;2024-03-23T05:25:54;9.83;;;2.43;;
1404;SDS011;697;51.114;6.542;2024-03-23T05:28:22;11.97;;;3.13;;
1404;SDS011;697;51.114;6.542;2024-03-23T05:30:50;7.60;;;3.03;;
1404;SDS011;697;51.114;6.542;2024-03-23T05:33:19;10.53;;;3.40;;
1404;SDS011;697;51.114;6.542;2024-03-23T05:35:45;15.97;;;4.93;;
1404;SDS011;697;51.114;6.542;2024-03-23T05:38:12;12.07;;;4.10;;
1404;SDS011;697;51.114;6.542;2024-03-23T05:40:38;14.40;;;4.07;;
1404;SDS011;697;51.114;6.542;2024-03-23T05:43:06;8.57;;;3.20;;
1404;SDS011;697;51.114;6.542;2024-03-23T05:45:32;10.57;;;3.33;;
1404;SDS011;697;51.114;6.542;2024-03-23T05:47:58;7.27;;;3.40;;
1404;SDS011;697;51.114;6.542;2024-03-23T05:50:26;18.00;;;4.20;;
1404;SDS011;697;51.114;6.542;2024-03-23T05:52:53;13.30;;;3.60;;
1404;SDS011;697;51.114;6.542;2024-03-23T05:55:18;11.03;;;3.33;;
1404;SDS011;697;51.114;6.542;2024-03-23T05:57:45;7.00;;;3.60;;
1404;SDS011;697;51.114;6.542;2024-03-23T06:00:11;8.30;;;4.43;;
1404;SDS011;697;51.114;6.542;2024-03-23T06:02:42;9.57;;;4.57;;
1404;SDS011;697;51.114;6.542;2024-03-23T06:05:09;12.40;;;5.20;;
1404;SDS011;697;51.114;6.542;2024-03-23T06:07:38;15.80;;;6.73;;
1404;SDS011;697;51.114;6.542;2024-03-23T06:10:04;6.73;;;3.43;;
1404;SDS011;697;51.114;6.542;2024-03-23T06:12:32;10.50;;;3.93;;
1404;SDS011;697;51.114;6.542;2024-03-23T06:14:57;7.50;;;4.53;;
1404;SDS011;697;51.114;6.542;2024-03-23T06:17:24;14.33;;;4.70;;
1404;SDS011;697;51.114;6.542;2024-03-23T06:19:50;10.83;;;4.40;;
1404;SDS011;697;51.114;6.542;2024-03-23T06:22:17;16.43;;;4.97;;
1404;SDS011;697;51.114;6.542;2024-03-23T06:24:45;8.80;;;4.20;;
1404;SDS011;697;51.114;6.542;2024-03-23T06:27:12;9.87;;;3.90;;
1404;SDS011;697;51.114;6.542;2024-03-23T06:29:37;7.40;;;4.53;;
1404;SDS011;697;51.114;6.542;2024-03-23T06:32:04;11.77;;;4.07;;
1404;SDS011;697;51.114;6.542;2024-03-23T06:34:30;11.70;;;4.43;;
1404;SDS011;697;51.114;6.542;2024-03-23T06:36:57;13.17;;;3.83;;
1404;SDS011;697;51.114;6.542;2024-03-23T06:39:23;10.87;;;4.20;;
1404;SDS011;697;51.114;6.542;2024-03-23T06:41:53;7.80;;;4.63;;
1404;SDS011;697;51.114;6.542;2024-03-23T06:44:19;8.50;;;4.00;;
1404;SDS011;697;51.114;6.542;2024-03-23T06:46:46;12.30;;;4.90;;
1404;SDS011;697;51.114;6.542;2024-03-23T06:49:13;14.20;;;4.70;;
1404;SDS011;697;51.114;6.542;2024-03-23T06:51:41;13.43;;;4.73;;
1404;SDS011;697;51.114;6.542;2024-03-23T06:54:06;20.67;;;5.13;;
1404;SDS011;697;51.114;6.542;2024-03-23T06:56:33;11.63;;;5.47;;
1404;SDS011;697;51.114;6.542;2024-03-23T06:59:00;12.63;;;5.87;;
1404;SDS011;697;51.114;6.542;2024-03-23T07:01:27;16.20;;;5.33;;
1404;SDS011;697;51.114;6.542;2024-03-23T07:03:53;12.80;;;4.73;;
1404;SDS011;697;51.114;6.542;2024-03-23T07:06:20;13.73;;;6.13;;
1404;SDS011;697;51.114;6.542;2024-03-23T07:08:46;12.53;;;5.23;;
1404;SDS011;697;51.114;6.542;2024-03-23T07:11:18;13.93;;;5.60;;
1404;SDS011;697;51.114;6.542;2024-03-23T07:13:44;15.10;;;4.93;;
1404;SDS011;697;51.114;6.542;2024-03-23T07:18:40;13.30;;;5.40;;
1404;SDS011;697;51.114;6.542;2024-03-23T07:21:07;10.00;;;5.27;;
1404;SDS011;697;51.114;6.542;2024-03-23T07:23:33;19.30;;;6.93;;
1404;SDS011;697;51.114;6.542;2024-03-23T07:26:00;15.33;;;7.50;;
1404;SDS011;697;51.114;6.542;2024-03-23T07:28:27;13.60;;;7.10;;
1404;SDS011;697;51.114;6.542;2024-03-23T07:31:04;13.60;;;6.97;;
1404;SDS011;697;51.114;6.542;2024-03-23T07:33:32;17.03;;;8.47;;
1404;SDS011;697;51.114;6.542;2024-03-23T07:35:59;17.43;;;8.33;;
1404;SDS011;697;51.114;6.542;2024-03-23T07:38:26;13.80;;;7.47;;
1404;SDS011;697;51.114;6.542;2024-03-23T07:41:02;13.27;;;6.50;;
1404;SDS011;697;51.114;6.542;2024-03-23T07:43:28;7.93;;;5.90;;
1404;SDS011;697;51.114;6.542;2024-03-23T07:45:55;9.40;;;5.10;;
1404;SDS011;697;51.114;6.542;2024-03-23T07:48:21;10.40;;;5.37;;
1404;SDS011;697;51.114;6.542;2024-03-23T07:50:57;11.60;;;4.23;;
1404;SDS011;697;51.114;6.542;2024-03-23T07:53:23;10.37;;;4.53;;
1404;SDS011;697;51.114;6.542;2024-03-23T07:55:56;5.43;;;3.93;;
1404;SDS011;697;51.114;6.542;2024-03-23T07:58:23;7.87;;;3.80;;
1404;SDS011;697;51.114;6.542;2024-03-23T08:00:51;12.63;;;4.10;;
1404;SDS011;697;51.114;6.542;2024-03-23T08:03:17;6.80;;;3.27;;
1404;SDS011;697;51.114;6.542;2024-03-23T08:05:45;8.67;;;4.07;;
1404;SDS011;697;51.114;6.542;2024-03-23T08:08:12;9.70;;;3.77;;
1404;SDS011;697;51.114;6.542;2024-03-23T08:10:47;6.10;;;2.37;;
1404;SDS011;697;51.114;6.542;2024-03-23T08:13:13;6.20;;;2.63;;
1404;SDS011;697;51.114;6.542;2024-03-23T08:15:40;11.30;;;3.20;;
1404;SDS011;697;51.114;6.542;2024-03-23T08:18:06;5.57;;;2.70;;
1404;SDS011;697;51.114;6.542;2024-03-23T08:20:33;10.00;;;3.20;;
1404;SDS011;697;51.114;6.542;2024-03-23T08:22:59;6.97;;;4.20;;
1404;SDS011;697;51.114;6.542;2024-03-23T08:25:27;11.27;;;3.83;;
1404;SDS011;697;51.114;6.542;2024-03-23T08:27:56;8.80;;;3.80;;
1404;SDS011;697;51.114;6.542;2024-03-23T08:30:23;10.37;;;3.43;;
1404;SDS011;697;51.114;6.542;2024-03-23T08:32:49;8.50;;;3.10;;
1404;SDS011;697;51.114;6.542;2024-03-23T08:35:16;6.80;;;3.83;;
1404;SDS011;697;51.114;6.542;2024-03-23T08:37:42;9.67;;;4.87;;
1404;SDS011;697;51.114;6.542;2024-03-23T08:40:09;9.93;;;4.17;;
1404;SDS011;697;51.114;6.542;2024-03-23T08:42:36;9.40;;;3.73;;
1404;SDS011;697;51.114;6.542;2024-03-23T08:45:03;14.20;;;4.53;;
1404;SDS011;697;51.114;6.542;2024-03-23T08:47:33;13.50;;;4.97;;
1404;SDS011;697;51.114;6.542;2024-03-23T08:50:01;13.03;;;4.50;;
1404;SDS011;697;51.114;6.542;2024-03-23T08:52:27;12.97;;;4.73;;
1404;SDS011;697;51.114;6.542;2024-03-23T08:54:54;15.43;;;5.37;;
1404;SDS011;697;51.114;6.542;2024-03-23T08:57:21;15.87;;;4.10;;
1404;SDS011;697;51.114;6.542;2024-03-23T08:59:49;9.13;;;4.20;;
1404;SDS011;697;51.114;6.542;2024-03-23T09:02:15;10.77;;;4.50;;
1404;SDS011;697;51.114;6.542;2024-03-23T09:04:42;11.77;;;4.80;;
1404;SDS011;697;51.114;6.542;2024-03-23T09:07:09;9.13;;;4.73;;
1404;SDS011;697;51.114;6.542;2024-03-23T09:09:37;7.30;;;3.93;;
1404;SDS011;697;51.114;6.542;2024-03-23T09:12:03;7.50;;;3.97;;
1404;SDS011;697;51.114;6.542;2024-03-23T09:14:30;4.60;;;3.20;;
1404;SDS011;697;51.114;6.542;2024-03-23T09:16:58;8.77;;;3.30;;
1404;SDS011;697;51.114;6.542;2024-03-23T09:19:26;11.40;;;3.67;;
1404;SDS011;697;51.114;6.542;2024-03-23T09:21:53;5.43;;;3.07;;
1404;SDS011;697;51.114;6.542;2024-03-23T09:24:20;11.20;;;3.30;;
1404;SDS011;697;51.114;6.542;2024-03-23T09:26:46;15.70;;;3.90;;
1404;SDS011;697;51.114;6.542;2024-03-23T09:29:13;8.13;;;3.47;;
1404;SDS011;697;51.114;6.542;2024-03-23T09:31:39;12.87;;;3.50;;
1404;SDS011;697;51.114;6.542;2024-03-23T09:34:08;7.83;;;2.83;;
1404;SDS011;697;51.114;6.542;2024-03-23T09:36:34;7.30;;;2.73;;
1404;SDS011;697;51.114;6.542;2024-03-23T09:39:00;7.67;;;2.60;;
1404;SDS011;697;51.114;6.542;2024-03-23T09:41:28;9.90;;;2.73;;
1404;SDS011;697;51.114;6.542;2024-03-23T09:43:55;7.80;;;2.70;;
1404;SDS011;697;51.114;6.542;2024-03-23T09:46:21;6.97;;;1.90;;
1404;SDS011;697;51.114;6.542;2024-03-23T09:48:48;11.00;;;2.10;;
1404;SDS011;697;51.114;6.542;2024-03-23T09:51:16;5.47;;;2.30;;
1404;SDS011;697;51.114;6.542;2024-03-23T09:53:42;10.27;;;2.90;;
1404;SDS011;697;51.114;6.542;2024-03-23T09:56:08;6.50;;;2.43;;
1404;SDS011;697;51.114;6.542;2024-03-23T09:58:35;6.97;;;2.20;;
1404;SDS011;697;51.114;6.542;2024-03-23T10:01:01;10.60;;;2.40;;
1404;SDS011;697;51.114;6.542;2024-03-23T10:03:28;8.63;;;2.17;;
1404;SDS011;697;51.114;6.542;2024-03-23T10:06:01;7.83;;;2.50;;
1404;SDS011;697;51.114;6.542;2024-03-23T10:08:30;7.03;;;2.30;;
1404;SDS011;697;51.114;6.542;2024-03-23T10:10:56;13.43;;;2.50;;
1404;SDS011;697;51.114;6.542;2024-03-23T10:13:23;12.03;;;2.63;;
1404;SDS011;697;51.114;6.542;2024-03-23T10:15:54;7.20;;;2.37;;
1404;SDS011;697;51.114;6.542;2024-03-23T10:18:23;4.03;;;2.00;;
1404;SDS011;697;51.114;6.542;2024-03-23T10:20:50;2.70;;;1.63;;
1404;SDS011;697;51.114;6.542;2024-03-23T10:23:18;11.63;;;2.50;;
1404;SDS011;697;51.114;6.542;2024-03-23T10:25:45;4.50;;;2.03;;
1404;SDS011;697;51.114;6.542;2024-03-23T10:28:12;6.03;;;2.10;;
1404;SDS011;697;51.114;6.542;2024-03-23T10:30:38;9.33;;;2.30;;
1404;SDS011;697;51.114;6.542;2024-03-23T10:33:08;5.73;;;2.50;;
1404;SDS011;697;51.114;6.542;2024-03-23T10:35:34;3.10;;;1.70;;
1404;SDS011;697;51.114;6.542;2024-03-23T10:38:04;7.00;;;2.50;;
1404;SDS011;697;51.114;6.542;2024-03-23T10:40:31;6.93;;;1.80;;
1404;SDS011;697;51.114;6.542;2024-03-23T10:43:01;3.30;;;1.20;;
1404;SDS011;697;51.114;6.542;2024-03-23T10:45:29;1.90;;;0.60;;
1404;SDS011;697;51.114;6.542;2024-03-23T10:47:56;1.63;;;0.90;;
1404;SDS011;697;51.114;6.542;2024-03-23T10:50:22;2.23;;;1.10;;
1404;SDS011;697;51.114;6.542;2024-03-23T10:52:49;2.83;;;0.90;;
1404;SDS011;697;51.114;6.542;2024-03-23T10:55:19;1.70;;;0.97;;
1404;SDS011;697;51.114;6.542;2024-03-23T10:57:48;2.87;;;1.00;;
1404;SDS011;697;51.114;6.542;2024-03-23T11:00:18;4.17;;;0.80;;
1404;SDS011;697;51.114;6.542;2024-03-23T11:02:46;2.03;;;0.90;;
1404;SDS011;697;51.114;6.542;2024-03-23T11:05:28;2.43;;;0.80;;
1404;SDS011;697;51.114;6.542;2024-03-23T11:07:56;5.23;;;1.60;;
1404;SDS011;697;51.114;6.542;2024-03-23T11:10:26;2.63;;;0.70;;
1404;SDS011;697;51.114;6.542;2024-03-23T11:12:54;3.07;;;0.90;;
1404;SDS011;697;51.114;6.542;2024-03-23T11:15:21;2.13;;;0.93;;
1404;SDS011;697;51.114;6.542;2024-03-23T11:18:05;2.30;;;0.90;;
1404;SDS011;697;51.114;6.542;2024-03-23T11:20:34;1.97;;;0.70;;
1404;SDS011;697;51.114;6.542;2024-03-23T11:23:01;2.80;;;1.20;;
1404;SDS011;697;51.114;6.542;2024-03-23T11:25:28;1.03;;;0.80;;
1404;SDS011;697;51.114;6.542;2024-03-23T11:27:56;1.70;;;0.90;;
1404;SDS011;697;51.114;6.542;2024-03-23T11:30:24;2.23;;;1.00;;
1404;SDS011;697;51.114;6.542;2024-03-23T11:32:53;1.93;;;0.80;;
1404;SDS011;697;51.114;6.542;2024-03-23T11:35:26;4.43;;;1.10;;
1404;SDS011;697;51.114;6.542;2024-03-23T11:38:06;2.97;;;1.40;;
1404;SDS011;697;51.114;6.542;2024-03-23T11:40:34;4.10;;;1.60;;
1404;SDS011;697;51.114;6.542;2024-03-23T11:43:01;3.37;;;1.67;;
1404;SDS011;697;51.114;6.542;2024-03-23T11:45:33;4.53;;;1.30;;
1404;SDS011;697;51.114;6.542;2024-03-23T11:48:07;1.60;;;0.73;;
1404;SDS011;697;51.114;6.542;2024-03-23T11:50:36;2.13;;;0.40;;
1404;SDS011;697;51.114;6.542;2024-03-23T11:55:48;1.67;;;0.90;;
1404;SDS011;697;51.114;6.542;2024-03-23T11:58:16;1.10;;;0.50;;
1404;SDS011;697;51.114;6.542;2024-03-23T12:00:50;2.00;;;0.83;;
1404;SDS011;697;51.114;6.542;2024-03-23T12:03:17;2.97;;;1.20;;
1404;SDS011;697;51.114;6.542;2024-03-23T12:05:47;2.37;;;1.20;;
1404;SDS011;697;51.114;6.542;2024-03-23T12:08:15;2.37;;;1.00;;
1404;SDS011;697;51.114;6.542;2024-03-23T12:10:47;3.57;;;1.30;;
1404;SDS011;697;51.114;6.542;2024-03-23T12:13:15;3.47;;;1.37;;
1404;SDS011;697;51.114;6.542;2024-03-23T12:15:43;2.37;;;1.10;;
1404;SDS011;697;51.114;6.542;2024-03-23T12:18:11;1.33;;;0.57;;
1404;SDS011;697;51.114;6.542;2024-03-23T12:20:39;3.30;;;1.60;;
1404;SDS011;697;51.114;6.542;2024-03-23T12:23:06;0.60;;;0.50;;
1404;SDS011;697;51.114;6.542;2024-03-23T12:25:35;2.20;;;0.80;;
1404;SDS011;697;51.114;6.542;2024-03-23T12:28:01;2.63;;;0.70;;
1404;SDS011;697;51.114;6.542;2024-03-23T12:30:31;2.63;;;0.63;;
1404;SDS011;697;51.114;6.542;2024-03-23T12:32:57;2.57;;;0.60;;
1404;SDS011;697;51.114;6.542;2024-03-23T12:35:25;1.67;;;0.50;;
1404;SDS011;697;51.114;6.542;2024-03-23T12:37:51;2.20;;;0.60;;
1404;SDS011;697;51.114;6.542;2024-03-23T12:40:18;2.83;;;0.70;;
1404;SDS011;697;51.114;6.542;2024-03-23T12:42:44;2.40;;;0.70;;
1404;SDS011;697;51.114;6.542;2024-03-23T12:45:11;2.33;;;0.63;;
1404;SDS011;697;51.114;6.542;2024-03-23T12:47:37;5.07;;;1.00;;
1404;SDS011;697;51.114;6.542;2024-03-23T12:50:04;2.00;;;0.87;;
1404;SDS011;697;51.114;6.542;2024-03-23T12:52:32;3.23;;;0.70;;
1404;SDS011;697;51.114;6.542;2024-03-23T12:54:59;1.83;;;1.30;;
1404;SDS011;697;51.114;6.542;2024-03-23T12:57:25;3.10;;;0.90;;
1404;SDS011;697;51.114;6.542;2024-03-23T12:59:52;1.97;;;1.23;;
1404;SDS011;697;51.114;6.542;2024-03-23T13:02:19;3.23;;;1.00;;
1404;SDS011;697;51.114;6.542;2024-03-23T13:04:46;2.23;;;1.00;;
1404;SDS011;697;51.114;6.542;2024-03-23T13:07:14;6.17;;;1.47;;
1404;SDS011;697;51.114;6.542;2024-03-23T13:09:42;2.00;;;1.33;;
1404;SDS011;697;51.114;6.542;2024-03-23T13:12:09;3.27;;;1.20;;
1404;SDS011;697;51.114;6.542;2024-03-23T13:14:37;2.10;;;1.13;;
1404;SDS011;697;51.114;6.542;2024-03-23T13:17:03;3.23;;;1.40;;
1404;SDS011;697;51.114;6.542;2024-03-23T13:19:30;4.10;;;1.43;;
1404;SDS011;697;51.114;6.542;2024-03-23T13:21:57;1.53;;;1.20;;
1404;SDS011;697;51.114;6.542;2024-03-23T13:24:24;4.07;;;1.30;;
1404;SDS011;697;51.114;6.542;2024-03-23T13:26:54;1.93;;;0.80;;
1404;SDS011;697;51.114;6.542;2024-03-23T13:29:22;4.50;;;0.97;;
1404;SDS011;697;51.114;6.542;2024-03-23T13:31:49;2.20;;;1.40;;
1404;SDS011;697;51.114;6.542;2024-03-23T13:34:17;5.50;;;1.50;;
1404;SDS011;697;51.114;6.542;2024-03-23T13:36:43;4.00;;;1.50;;
1404;SDS011;697;51.114;6.542;2024-03-23T13:39:11;4.30;;;1.03;;
1404;SDS011;697;51.114;6.542;2024-03-23T13:41:38;2.30;;;0.80;;
1404;SDS011;697;51.114;6.542;2024-03-23T13:44:07;2.87;;;1.37;;
1404;SDS011;697;51.114;6.542;2024-03-23T13:46:35;3.17;;;1.07;;
1404;SDS011;697;51.114;6.542;2024-03-23T13:49:02;3.13;;;1.10;;
1404;SDS011;697;51.114;6.542;2024-03-23T13:51:28;3.40;;;1.07;;
1404;SDS011;697;51.114;6.542;2024-03-23T13:53:55;2.47;;;1.25;;
1404;SDS011;697;51.114;6.542;2024-03-23T13:56:22;3.40;;;0.93;;
1404;SDS011;697;51.114;6.542;2024-03-23T13:58:49;1.40;;;0.80;;
1404;SDS011;697;51.114;6.542;2024-03-23T14:01:16;2.40;;;0.90;;
1404;SDS011;697;51.114;6.542;2024-03-23T14:03:43;3.33;;;1.13;;
1404;SDS011;697;51.114;6.542;2024-03-23T14:06:09;1.90;;;0.90;;
1404;SDS011;697;51.114;6.542;2024-03-23T14:08:37;3.10;;;1.30;;
1404;SDS011;697;51.114;6.542;2024-03-23T14:11:04;3.50;;;1.30;;
1404;SDS011;697;51.114;6.542;2024-03-23T14:13:31;3.13;;;1.37;;
1404;SDS011;697;51.114;6.542;2024-03-23T14:15:57;3.00;;;0.93;;
1404;SDS011;697;51.114;6.542;2024-03-23T14:18:26;2.60;;;1.00;;
1404;SDS011;697;51.114;6.542;2024-03-23T14:20:55;1.60;;;1.27;;
1404;SDS011;697;51.114;6.542;2024-03-23T14:23:24;4.00;;;1.07;;
1404;SDS011;697;51.114;6.542;2024-03-23T14:25:52;1.70;;;1.17;;
1404;SDS011;697;51.114;6.542;2024-03-23T14:28:19;3.27;;;2.80;;
1404;SDS011;697;51.114;6.542;2024-03-23T14:30:45;1.27;;;0.83;;
1404;SDS011;697;51.114;6.542;2024-03-23T14:33:12;2.77;;;0.90;;
1404;SDS011;697;51.114;6.542;2024-03-23T14:35:39;0.80;;;0.80;;
1404;SDS011;697;51.114;6.542;2024-03-23T14:38:06;1.10;;;0.70;;
1404;SDS011;697;51.114;6.542;2024-03-23T14:40:32;1.57;;;0.67;;
1404;SDS011;697;51.114;6.542;2024-03-23T14:42:59;2.23;;;0.90;;
1404;SDS011;697;51.114;6.542;2024-03-23T14:45:25;1.30;;;0.70;;
1404;SDS011;697;51.114;6.542;2024-03-23T14:47:52;1.40;;;0.70;;
1404;SDS011;697;51.114;6.542;2024-03-23T14:50:18;1.27;;;0.47;;
1404;SDS011;697;51.114;6.542;2024-03-23T14:52:48;0.87;;;0.40;;
1404;SDS011;697;51.114;6.542;2024-03-23T14:55:13;1.00;;;0.60;;
1404;SDS011;697;51.114;6.542;2024-03-23T14:57:42;0.60;;;0.60;;
1404;SDS011;697;51.114;6.542;2024-03-23T15:00:08;0.93;;;0.67;;
1404;SDS011;697;51.114;6.542;2024-03-23T15:02:37;0.90;;;0.80;;
1404;SDS011;697;51.114;6.542;2024-03-23T15:05:03;1.20;;;0.80;;
1404;SDS011;697;51.114;6.542;2024-03-23T15:07:30;1.60;;;0.90;;
1404;SDS011;697;51.114;6.542;2024-03-23T15:09:57;3.00;;;1.20;;
1404;SDS011;697;51.114;6.542;2024-03-23T15:12:24;1.67;;;1.17;;
1404;SDS011;697;51.114;6.542;2024-03-23T15:14:50;1.20;;;0.97;;
1404;SDS011;697;51.114;6.542;2024-03-23T15:17:17;1.23;;;0.70;;
1404;SDS011;697;51.114;6.542;2024-03-23T15:19:43;2.23;;;0.77;;
1404;SDS011;697;51.114;6.542;2024-03-23T15:22:10;1.07;;;0.70;;
1404;SDS011;697;51.114;6.542;2024-03-23T15:24:36;1.23;;;0.73;;
1404;SDS011;697;51.114;6.542;2024-03-23T15:27:04;0.70;;;0.50;;
1404;SDS011;697;51.114;6.542;2024-03-23T15:29:32;2.40;;;0.77;;
1404;SDS011;697;51.114;6.542;2024-03-23T15:31:59;2.67;;;0.77;;
1404;SDS011;697;51.114;6.542;2024-03-23T15:34:25;2.30;;;0.70;;
1404;SDS011;697;51.114;6.542;2024-03-23T15:36:52;1.73;;;0.90;;
1404;SDS011;697;51.114;6.542;2024-03-23T15:39:18;2.30;;;0.87;;
1404;SDS011;697;51.114;6.542;2024-03-23T15:41:46;1.13;;;0.80;;
1404;SDS011;697;51.114;6.542;2024-03-23T15:44:14;2.63;;;1.17;;
1404;SDS011;697;51.114;6.542;2024-03-23T15:46:41;4.23;;;1.60;;
1404;SDS011;697;51.114;6.542;2024-03-23T15:49:06;3.67;;;1.27;;
1404;SDS011;697;51.114;6.542;2024-03-23T15:51:33;2.13;;;1.00;;
1404;SDS011;697;51.114;6.542;2024-03-23T15:54:02;4.17;;;1.27;;
1404;SDS011;697;51.114;6.542;2024-03-23T15:56:29;1.50;;;1.10;;
1404;SDS011;697;51.114;6.542;2024-03-23T15:58:55;2.67;;;1.30;;
1404;SDS011;697;51.114;6.542;2024-03-23T16:01:29;2.40;;;1.30;;
1404;SDS011;697;51.114;6.542;2024-03-23T16:03:54;2.83;;;1.27;;
1404;SDS011;697;51.114;6.542;2024-03-23T16:06:21;2.07;;;1.00;;
1404;SDS011;697;51.114;6.542;2024-03-23T16:08:47;3.80;;;1.10;;
1404;SDS011;697;51.114;6.542;2024-03-23T16:11:14;2.23;;;0.90;;
1404;SDS011;697;51.114;6.542;2024-03-23T16:13:40;3.00;;;1.10;;
1404;SDS011;697;51.114;6.542;2024-03-23T16:16:08;2.80;;;1.27;;
1404;SDS011;697;51.114;6.542;2024-03-23T16:18:36;1.50;;;1.40;;
1404;SDS011;697;51.114;6.542;2024-03-23T16:21:05;6.07;;;1.30;;
1404;SDS011;697;51.114;6.542;2024-03-23T16:23:32;1.47;;;1.10;;
1404;SDS011;697;51.114;6.542;2024-03-23T16:26:00;2.50;;;1.13;;